createdAt,value
2019-02-27T00:00:43.795Z,92.20
2019-02-27T00:03:18.275Z,92.10
2019-02-27T00:05:52.240Z,92.00
2019-02-27T00:08:27.036Z,92.00
2019-02-27T00:11:01.105Z,92.30
2019-02-27T00:13:35.070Z,92.00
2019-02-27T00:16:10.846Z,91.90
2019-02-27T00:18:44.173Z,91.60
2019-02-27T00:21:17.808Z,91.80
2019-02-27T00:23:52.085Z,91.50
2019-02-27T00:26:26.546Z,91.40
2019-02-27T00:29:02.117Z,91.60
2019-02-27T00:31:35.836Z,91.60
2019-02-27T00:34:09.634Z,91.60
2019-02-27T00:36:45.071Z,91.60
2019-02-27T00:39:18.820Z,91.90
2019-02-27T00:41:52.504Z,91.30
2019-02-27T00:44:28.906Z,91.20
2019-02-27T00:47:02.354Z,91.30
2019-02-27T00:49:36.264Z,91.80
2019-02-27T00:52:09.882Z,92.00
2019-02-27T00:54:43.643Z,92.10
2019-02-27T00:57:20.868Z,92.20
2019-02-27T00:59:53.722Z,92.30
2019-02-27T01:02:27.284Z,92.10
2019-02-27T01:05:01.023Z,91.70
2019-02-27T01:07:35.746Z,91.40
2019-02-27T01:10:12.387Z,91.80
2019-02-27T01:12:45.490Z,92.00
2019-02-27T01:15:19.352Z,91.10
2019-02-27T01:18:07.944Z,90.60
2019-02-27T01:20:45.728Z,90.30
2019-02-27T01:23:17.072Z,90.50
2019-02-27T01:25:56.148Z,90.70
2019-02-27T01:28:27.244Z,91.20
2019-02-27T01:31:01.240Z,91.40
2019-02-27T01:33:37.919Z,91.20
2019-02-27T01:36:10.413Z,91.30
2019-02-27T01:38:44.032Z,91.30
2019-02-27T01:41:18.405Z,91.20
2019-02-27T01:43:52.461Z,91.20
2019-02-27T01:46:29.075Z,91.20
2019-02-27T01:49:02.635Z,91.20
2019-02-27T01:51:36.380Z,91.20
2019-02-27T01:54:12.223Z,91.00
2019-02-27T01:56:46.511Z,91.10
2019-02-27T01:59:20.754Z,91.20
2019-02-27T02:01:55.476Z,91.20
2019-02-27T02:04:29.008Z,91.40
2019-02-27T02:07:04.092Z,91.30
2019-02-27T02:09:39.634Z,91.70
2019-02-27T02:12:26.053Z,91.70
2019-02-27T02:15:34.928Z,91.70
2019-02-27T02:18:56.333Z,91.60
2019-02-27T02:22:03.370Z,91.40
2019-02-27T02:25:08.973Z,92.10
2019-02-27T02:28:19.416Z,91.70
2019-02-27T02:31:18.258Z,92.20
2019-02-27T02:35:02.917Z,92.20
2019-02-27T02:38:12.058Z,91.70
2019-02-27T02:41:10.204Z,92.40
2019-02-27T02:44:25.916Z,92.20
2019-02-27T02:47:42.934Z,92.20
2019-02-27T02:51:04.814Z,92.50
2019-02-27T02:54:11.962Z,92.40
2019-02-27T02:57:25.941Z,92.20
2019-02-27T03:00:09.755Z,92.20
2019-02-27T03:03:21.402Z,92.20
2019-02-27T03:06:50.494Z,92.20
2019-02-27T03:10:16.749Z,92.40
2019-02-27T03:13:20.502Z,92.40
2019-02-27T03:16:05.912Z,91.90
2019-02-27T03:19:06.724Z,91.80
2019-02-27T03:22:03.635Z,91.80
2019-02-27T03:25:04.364Z,91.50
2019-02-27T03:27:56.460Z,91.50
2019-02-27T03:30:48.255Z,91.80
2019-02-27T03:34:05.154Z,91.60
2019-02-27T03:36:44.770Z,91.80
2019-02-27T03:39:59.935Z,91.90
2019-02-27T03:43:02.502Z,91.70
2019-02-27T03:46:17.283Z,91.50
2019-02-27T03:49:32.357Z,91.80
2019-02-27T03:52:53.337Z,91.80
2019-02-27T03:55:49.003Z,92.00
2019-02-27T03:59:06.313Z,92.00
2019-02-27T04:01:54.005Z,91.90
2019-02-27T04:04:36.957Z,92.30
2019-02-27T04:07:44.069Z,91.80
2019-02-27T04:10:17.671Z,91.90
2019-02-27T04:12:52.305Z,92.00
2019-02-27T04:15:25.958Z,92.20
2019-02-27T04:17:57.743Z,92.20
2019-02-27T04:20:33.279Z,92.10
2019-02-27T04:23:11.469Z,92.30
2019-02-27T04:25:42.459Z,92.00
2019-02-27T04:28:16.259Z,91.80
2019-02-27T04:30:51.374Z,91.70
2019-02-27T04:33:25.139Z,91.20
2019-02-27T04:35:58.817Z,91.20
2019-02-27T04:38:32.702Z,91.30
2019-02-27T04:41:07.372Z,91.40
2019-02-27T04:43:41.140Z,91.30
2019-02-27T04:46:15.057Z,91.30
2019-02-27T04:48:48.680Z,91.10
2019-02-27T04:51:25.488Z,91.00
2019-02-27T04:53:59.046Z,91.60
2019-02-27T04:56:32.976Z,91.60
2019-02-27T04:59:06.645Z,91.50
2019-02-27T05:01:40.748Z,91.60
2019-02-27T05:04:17.864Z,91.80
2019-02-27T05:06:51.858Z,91.90
2019-02-27T05:09:25.863Z,91.80
2019-02-27T05:12:00.763Z,92.00
2019-02-27T05:14:34.390Z,92.00
2019-02-27T05:17:10.594Z,92.10
2019-02-27T05:19:44.304Z,92.20
2019-02-27T05:22:18.066Z,92.40
2019-02-27T05:24:51.574Z,92.50
2019-02-27T05:27:27.359Z,92.40
2019-02-27T05:30:00.974Z,92.70
2019-02-27T05:32:34.820Z,93.20
2019-02-27T05:35:08.626Z,93.40
2019-02-27T05:37:42.896Z,93.50
2019-02-27T05:40:16.963Z,93.00
2019-02-27T05:42:50.938Z,93.00
2019-02-27T05:45:30.358Z,93.40
2019-02-27T05:48:01.598Z,93.60
2019-02-27T05:50:35.266Z,93.10
2019-02-27T05:53:11.617Z,92.30
2019-02-27T05:55:45.336Z,92.10
2019-02-27T05:58:22.873Z,91.70
2019-02-27T06:00:54.587Z,92.90
2019-02-27T06:03:32.011Z,92.80
2019-02-27T06:06:06.745Z,90.80
2019-02-27T06:08:41.068Z,90.00
2019-02-27T06:11:14.788Z,88.40
2019-02-27T06:13:48.699Z,87.80
2019-02-27T06:16:24.819Z,80.60
2019-02-27T06:18:58.761Z,80.10
2019-02-27T06:21:38.773Z,80.70
2019-02-27T06:24:12.827Z,78.40
2019-02-27T06:26:47.194Z,76.00
2019-02-27T06:29:23.498Z,76.60
2019-02-27T06:31:56.526Z,78.80
2019-02-27T06:34:30.780Z,78.70
2019-02-27T06:37:04.520Z,78.80
2019-02-27T06:39:38.765Z,79.40
2019-02-27T06:42:12.609Z,77.60
2019-02-27T06:44:47.711Z,71.50
2019-02-27T06:47:21.731Z,71.40
2019-02-27T06:49:56.748Z,71.50
2019-02-27T06:52:31.039Z,64.80
2019-02-27T06:55:08.260Z,63.30
2019-02-27T06:57:42.160Z,61.00
2019-02-27T07:00:20.950Z,59.80
2019-02-27T07:02:56.226Z,60.70
2019-02-27T07:05:31.175Z,61.40
2019-02-27T07:08:05.406Z,60.60
2019-02-27T07:10:40.341Z,60.10
2019-02-27T07:13:14.051Z,58.60
2019-02-27T07:15:48.799Z,57.80
2019-02-27T07:18:22.710Z,58.10
2019-02-27T07:20:58.485Z,58.00
2019-02-27T07:23:35.207Z,56.80
2019-02-27T07:26:10.446Z,55.80
2019-02-27T07:28:45.771Z,55.30
2019-02-27T07:31:23.303Z,54.60
2019-02-27T07:33:57.491Z,53.90
2019-02-27T07:36:32.108Z,53.60
2019-02-27T07:39:08.509Z,53.80
2019-02-27T07:41:43.113Z,54.00
2019-02-27T07:44:18.340Z,52.70
2019-02-27T07:46:57.207Z,54.50
2019-02-27T07:49:30.957Z,54.30
2019-02-27T07:52:05.135Z,54.30
2019-02-27T07:54:41.071Z,53.80
2019-02-27T07:57:18.503Z,53.90
2019-02-27T07:59:52.423Z,52.70
2019-02-27T08:02:26.521Z,52.90
2019-02-27T08:05:00.719Z,52.20
2019-02-27T08:07:35.742Z,53.70
2019-02-27T08:10:12.529Z,53.20
2019-02-27T08:12:47.108Z,52.10
2019-02-27T08:15:21.889Z,52.40
2019-02-27T08:17:57.933Z,52.90
2019-02-27T08:20:32.154Z,51.60
2019-02-27T08:23:06.999Z,52.60
2019-02-27T08:25:41.781Z,52.20
2019-02-27T08:28:15.864Z,52.00
2019-02-27T08:30:49.196Z,52.10
2019-02-27T08:33:23.969Z,51.50
2019-02-27T08:35:58.454Z,50.90
2019-02-27T08:38:33.716Z,50.40
2019-02-27T08:41:11.476Z,51.00
2019-02-27T08:43:46.871Z,51.20
2019-02-27T08:46:22.338Z,51.40
2019-02-27T08:48:56.910Z,52.30
2019-02-27T08:51:33.730Z,51.30
2019-02-27T08:54:08.757Z,52.20
2019-02-27T08:56:44.155Z,51.10
2019-02-27T08:59:19.959Z,50.80
2019-02-27T09:01:56.342Z,51.40
2019-02-27T09:04:33.498Z,50.00
2019-02-27T09:07:08.280Z,49.40
2019-02-27T09:09:42.610Z,51.00
2019-02-27T09:12:16.747Z,50.30
2019-02-27T09:14:53.093Z,50.40
2019-02-27T09:17:27.349Z,50.00
2019-02-27T09:20:03.073Z,50.30
2019-02-27T09:22:41.477Z,49.20
2019-02-27T09:25:16.020Z,49.20
2019-02-27T09:27:51.822Z,50.50
2019-02-27T09:30:30.706Z,50.90
2019-02-27T09:33:05.397Z,51.00
2019-02-27T09:35:39.962Z,49.60
2019-02-27T09:38:14.302Z,50.00
2019-02-27T09:40:48.663Z,49.00
2019-02-27T09:43:24.090Z,48.10
2019-02-27T09:46:00.238Z,49.00
2019-02-27T09:48:35.033Z,49.20
2019-02-27T09:51:09.804Z,48.10
2019-02-27T09:53:45.679Z,47.70
2019-02-27T09:56:19.920Z,47.20
2019-02-27T09:58:53.477Z,47.40
2019-02-27T10:01:34.448Z,46.90
2019-02-27T10:04:06.716Z,47.90
2019-02-27T10:06:42.833Z,48.10
2019-02-27T10:09:20.931Z,46.50
2019-02-27T10:11:55.799Z,46.50
2019-02-27T10:14:30.227Z,46.20
2019-02-27T10:17:06.751Z,45.20
2019-02-27T10:19:39.824Z,44.40
2019-02-27T10:22:17.685Z,45.70
2019-02-27T10:24:50.926Z,44.80
2019-02-27T10:27:28.841Z,44.70
2019-02-27T10:30:11.177Z,44.70
2019-02-27T10:32:40.353Z,44.60
2019-02-27T10:35:20.291Z,45.40
2019-02-27T10:37:59.277Z,45.20
2019-02-27T10:40:33.225Z,45.80
2019-02-27T10:43:07.260Z,45.10
2019-02-27T10:45:42.579Z,45.70
2019-02-27T10:48:18.462Z,45.90
2019-02-27T10:50:52.749Z,45.70
2019-02-27T10:53:28.637Z,45.70
2019-02-27T10:56:02.755Z,45.70
2019-02-27T10:58:47.630Z,44.90
2019-02-27T11:01:20.833Z,44.90
2019-02-27T11:03:56.974Z,44.40
2019-02-27T11:06:33.905Z,44.40
2019-02-27T11:09:13.955Z,44.60
2019-02-27T11:12:00.741Z,43.40
2019-02-27T11:14:35.337Z,43.50
2019-02-27T11:17:09.382Z,43.00
2019-02-27T11:19:43.939Z,42.70
2019-02-27T11:22:18.307Z,43.50
2019-02-27T11:24:52.571Z,43.80
2019-02-27T11:27:30.644Z,43.80
2019-02-27T11:30:05.193Z,43.50
2019-02-27T11:32:40.800Z,43.30
2019-02-27T11:35:15.190Z,43.40
2019-02-27T11:37:49.826Z,42.10
2019-02-27T11:40:26.265Z,43.00
2019-02-27T11:43:01.029Z,43.30
2019-02-27T11:45:35.934Z,42.20
2019-02-27T11:48:10.120Z,42.30
2019-02-27T11:50:45.329Z,43.50
2019-02-27T11:53:19.707Z,43.90
2019-02-27T11:55:54.161Z,43.50
2019-02-27T11:58:29.555Z,43.90
2019-02-27T12:01:05.907Z,42.40
2019-02-27T12:03:45.688Z,42.60
2019-02-27T12:06:19.716Z,42.40
2019-02-27T12:08:54.426Z,41.90
2019-02-27T12:11:31.489Z,41.90
2019-02-27T12:14:06.527Z,41.10
2019-02-27T12:16:48.591Z,41.10
2019-02-27T12:19:22.734Z,42.30
2019-02-27T12:22:00.310Z,42.60
2019-02-27T12:24:34.726Z,43.40
2019-02-27T12:27:11.797Z,44.30
2019-02-27T12:29:44.571Z,43.30
2019-02-27T12:32:21.967Z,43.80
2019-02-27T12:34:58.193Z,43.50
2019-02-27T12:37:34.765Z,43.30
2019-02-27T12:40:10.994Z,43.10
2019-02-27T12:42:49.882Z,42.90
2019-02-27T12:45:26.802Z,43.30
2019-02-27T12:48:01.651Z,43.90
2019-02-27T12:50:36.751Z,43.10
2019-02-27T12:53:11.079Z,42.50
2019-02-27T12:55:46.244Z,42.50
2019-02-27T12:58:24.323Z,42.60
2019-02-27T13:00:59.094Z,42.80
2019-02-27T13:03:33.661Z,43.10
2019-02-27T13:06:08.764Z,43.30
2019-02-27T13:08:46.503Z,42.90
2019-02-27T13:11:20.684Z,43.10
2019-02-27T13:13:57.235Z,43.00
2019-02-27T13:16:33.238Z,43.30
2019-02-27T13:19:08.949Z,42.60
2019-02-27T13:21:43.492Z,42.90
2019-02-27T13:24:18.267Z,42.70
2019-02-27T13:26:52.310Z,42.40
2019-02-27T13:29:26.754Z,42.00
2019-02-27T13:32:01.488Z,42.10
2019-02-27T13:34:38.257Z,41.70
2019-02-27T13:37:12.245Z,41.50
2019-02-27T13:39:48.453Z,41.80
2019-02-27T13:42:23.833Z,41.70
2019-02-27T13:44:59.852Z,41.30
2019-02-27T13:47:33.779Z,42.40
2019-02-27T13:50:09.583Z,42.50
2019-02-27T13:52:49.876Z,43.10
2019-02-27T13:55:23.491Z,43.20
2019-02-27T13:57:59.200Z,42.60
2019-02-27T14:00:36.575Z,42.30
2019-02-27T14:03:12.694Z,42.20
2019-02-27T14:05:46.921Z,41.00
2019-02-27T14:08:21.181Z,40.80
2019-02-27T14:10:58.908Z,40.50
2019-02-27T14:13:33.546Z,40.60
2019-02-27T14:16:12.910Z,41.10
2019-02-27T14:18:49.858Z,41.70
2019-02-27T14:21:23.768Z,40.70
2019-02-27T14:23:58.782Z,40.80
2019-02-27T14:26:34.138Z,40.50
2019-02-27T14:29:09.185Z,40.20
2019-02-27T14:31:44.593Z,40.20
2019-02-27T14:34:19.242Z,40.40
2019-02-27T14:36:53.565Z,40.90
2019-02-27T14:39:29.622Z,41.20
2019-02-27T14:42:05.753Z,42.00
2019-02-27T14:44:39.967Z,42.10
2019-02-27T14:47:16.596Z,41.80
2019-02-27T14:49:51.077Z,42.60
2019-02-27T14:52:26.269Z,41.90
2019-02-27T14:55:03.477Z,42.60
2019-02-27T14:57:37.135Z,41.40
2019-02-27T15:00:17.550Z,41.70
2019-02-27T15:02:55.643Z,41.80
2019-02-27T15:05:29.135Z,41.50
2019-02-27T15:08:05.866Z,41.10
2019-02-27T15:10:47.517Z,41.00
2019-02-27T15:13:28.121Z,40.60
2019-02-27T15:16:00.200Z,41.00
2019-02-27T15:18:35.170Z,40.20
2019-02-27T15:21:12.956Z,40.80
2019-02-27T15:23:45.563Z,41.00
2019-02-27T15:26:20.177Z,41.80
2019-02-27T15:28:55.000Z,41.80
2019-02-27T15:31:30.775Z,42.00
2019-02-27T15:34:06.070Z,42.40
2019-02-27T15:36:40.531Z,41.50
2019-02-27T15:39:20.285Z,41.00
2019-02-27T15:41:52.628Z,41.40
2019-02-27T15:44:27.374Z,41.50
2019-02-27T15:47:02.141Z,41.90
2019-02-27T15:49:36.422Z,41.10
2019-02-27T15:52:10.836Z,40.90
2019-02-27T15:54:48.029Z,40.80
2019-02-27T15:57:21.333Z,40.30
2019-02-27T15:59:56.101Z,39.80
2019-02-27T16:02:30.440Z,40.30
2019-02-27T16:05:05.559Z,40.60
2019-02-27T16:07:42.555Z,41.30
2019-02-27T16:10:24.442Z,41.90
2019-02-27T16:13:00.978Z,42.60
2019-02-27T16:15:37.735Z,43.10
2019-02-27T16:18:13.998Z,42.10
2019-02-27T16:20:49.852Z,41.70
2019-02-27T16:23:25.245Z,42.10
2019-02-27T16:26:00.251Z,42.00
2019-02-27T16:28:35.437Z,41.90
2019-02-27T16:31:10.050Z,42.00
2019-02-27T16:33:44.117Z,42.50
2019-02-27T16:36:18.832Z,43.50
2019-02-27T16:38:54.507Z,43.20
2019-02-27T16:41:29.309Z,43.30
2019-02-27T16:44:03.284Z,43.20
2019-02-27T16:46:43.550Z,42.90
2019-02-27T16:49:19.419Z,42.90
2019-02-27T16:51:55.014Z,43.40
2019-02-27T16:54:29.387Z,43.60
2019-02-27T16:57:05.807Z,43.50
2019-02-27T16:59:42.251Z,43.10
2019-02-27T17:02:15.982Z,43.40
2019-02-27T17:04:50.392Z,43.70
2019-02-27T17:07:26.051Z,44.10
2019-02-27T17:10:01.777Z,44.30
2019-02-27T17:12:40.882Z,44.70
2019-02-27T17:15:15.968Z,44.70
2019-02-27T17:17:53.989Z,44.70
2019-02-27T17:20:29.892Z,44.80
2019-02-27T17:23:10.436Z,44.60
2019-02-27T17:25:40.654Z,44.80
2019-02-27T17:28:14.959Z,45.00
2019-02-27T17:30:49.050Z,45.10
2019-02-27T17:33:24.425Z,45.40
2019-02-27T17:35:59.359Z,45.50
2019-02-27T17:38:34.096Z,45.60
2019-02-27T17:41:09.914Z,45.70
2019-02-27T17:43:44.660Z,45.80
2019-02-27T17:46:26.744Z,45.80
2019-02-27T17:49:04.094Z,46.60
2019-02-27T17:51:39.528Z,46.20
2019-02-27T17:54:15.887Z,46.70
2019-02-27T17:56:52.844Z,46.60
2019-02-27T17:59:27.540Z,46.90
2019-02-27T18:02:02.380Z,47.90
2019-02-27T18:04:37.106Z,47.50
2019-02-27T18:07:11.683Z,47.40
2019-02-27T18:09:46.531Z,47.20
2019-02-27T18:12:21.564Z,47.00
2019-02-27T18:14:58.146Z,47.10
2019-02-27T18:17:34.661Z,47.40
2019-02-27T18:20:10.778Z,47.30
2019-02-27T18:22:49.148Z,47.70
2019-02-27T18:25:22.597Z,48.00
2019-02-27T18:27:59.747Z,47.70
2019-02-27T18:30:35.068Z,47.80
2019-02-27T18:33:13.618Z,48.20
2019-02-27T18:35:46.374Z,48.50
2019-02-27T18:38:21.637Z,48.40
2019-02-27T18:40:55.626Z,48.40
2019-02-27T18:43:30.095Z,49.00
2019-02-27T18:46:05.856Z,48.50
2019-02-27T18:48:43.508Z,48.60
2019-02-27T18:51:15.576Z,48.70
2019-02-27T18:53:50.495Z,49.00
2019-02-27T18:56:25.134Z,48.90
2019-02-27T18:58:58.886Z,49.30
2019-02-27T19:01:33.420Z,49.20
2019-02-27T19:04:09.169Z,49.10
2019-02-27T19:06:46.163Z,49.80
2019-02-27T19:09:20.152Z,50.20
2019-02-27T19:11:54.855Z,49.50
2019-02-27T19:14:30.320Z,50.20
2019-02-27T19:17:04.954Z,50.10
2019-02-27T19:19:40.721Z,50.10
2019-02-27T19:22:20.489Z,50.80
2019-02-27T19:24:57.489Z,50.90
2019-02-27T19:27:32.832Z,51.10
2019-02-27T19:30:07.958Z,50.50
2019-02-27T19:32:44.137Z,50.80
2019-02-27T19:35:22.521Z,51.00
2019-02-27T19:37:57.321Z,50.70
2019-02-27T19:40:31.359Z,51.20
2019-02-27T19:43:06.318Z,50.20
2019-02-27T19:45:42.155Z,51.00
2019-02-27T19:48:17.323Z,51.00
2019-02-27T19:50:51.550Z,51.30
2019-02-27T19:53:26.281Z,51.00
2019-02-27T19:56:02.336Z,51.80
2019-02-27T19:58:37.598Z,51.90
2019-02-27T20:01:11.921Z,52.30
2019-02-27T20:03:46.713Z,52.70
2019-02-27T20:06:21.621Z,52.90
2019-02-27T20:08:56.915Z,53.50
2019-02-27T20:11:40.034Z,53.10
2019-02-27T20:14:11.538Z,53.50
2019-02-27T20:16:45.643Z,53.90
2019-02-27T20:19:22.796Z,53.90
2019-02-27T20:21:58.572Z,54.00
2019-02-27T20:24:35.779Z,54.10
2019-02-27T20:27:11.226Z,54.00
2019-02-27T20:29:45.877Z,54.30
2019-02-27T20:32:20.069Z,54.30
2019-02-27T20:34:54.465Z,54.30
2019-02-27T20:37:30.993Z,54.30
2019-02-27T20:40:06.199Z,54.10
2019-02-27T20:42:41.249Z,54.40
2019-02-27T20:45:17.385Z,54.70
2019-02-27T20:48:04.589Z,54.80
2019-02-27T20:50:49.482Z,54.60
2019-02-27T20:53:23.404Z,54.50
2019-02-27T20:55:57.747Z,54.90
2019-02-27T20:58:33.126Z,55.20
2019-02-27T21:01:11.064Z,55.60
2019-02-27T21:03:44.569Z,56.30
2019-02-27T21:06:18.366Z,56.70
2019-02-27T21:08:52.506Z,56.40
2019-02-27T21:11:29.903Z,56.50
2019-02-27T21:14:06.375Z,56.10
2019-02-27T21:16:43.121Z,56.20
2019-02-27T21:19:17.881Z,55.80
2019-02-27T21:21:54.437Z,55.90
2019-02-27T21:24:27.969Z,56.00
2019-02-27T21:27:06.415Z,55.80
2019-02-27T21:29:43.395Z,55.70
2019-02-27T21:32:16.721Z,56.10
2019-02-27T21:34:55.247Z,56.40
2019-02-27T21:37:30.341Z,57.70
2019-02-27T21:40:04.500Z,58.60
2019-02-27T21:42:39.598Z,58.60
2019-02-27T21:45:15.799Z,58.90
2019-02-27T21:47:51.860Z,59.30
2019-02-27T21:50:25.235Z,59.70
2019-02-27T21:53:02.389Z,59.60
2019-02-27T21:55:36.615Z,59.80
2019-02-27T21:58:20.374Z,60.10
2019-02-27T22:00:48.990Z,60.80
2019-02-27T22:03:23.221Z,60.90
2019-02-27T22:05:57.108Z,60.70
2019-02-27T22:08:31.400Z,60.80
2019-02-27T22:11:05.277Z,60.80
2019-02-27T22:13:42.154Z,60.80
2019-02-27T22:16:16.778Z,61.00
2019-02-27T22:18:50.964Z,61.90
2019-02-27T22:21:24.962Z,61.70
2019-02-27T22:23:59.667Z,62.30
2019-02-27T22:26:34.156Z,62.70
2019-02-27T22:29:11.670Z,63.10
2019-02-27T22:31:45.286Z,63.80
2019-02-27T22:34:19.496Z,63.90
2019-02-27T22:36:52.804Z,63.60
2019-02-27T22:39:31.628Z,64.30
2019-02-27T22:42:06.005Z,64.70
2019-02-27T22:44:41.211Z,64.40
2019-02-27T22:47:14.874Z,64.90
2019-02-27T22:49:48.841Z,65.00
2019-02-27T22:52:23.691Z,64.80
2019-02-27T22:54:57.701Z,64.60
2019-02-27T22:57:31.677Z,65.00
2019-02-27T23:00:08.135Z,65.60
2019-02-27T23:02:44.487Z,65.50
2019-02-27T23:05:18.447Z,65.00
2019-02-27T23:07:52.453Z,65.10
2019-02-27T23:10:28.150Z,65.00
2019-02-27T23:13:02.044Z,64.90
2019-02-27T23:15:36.148Z,65.00
2019-02-27T23:18:09.989Z,64.50
2019-02-27T23:20:43.838Z,64.40
2019-02-27T23:23:22.406Z,64.50
2019-02-27T23:25:56.788Z,64.20
2019-02-27T23:28:34.524Z,65.00
2019-02-27T23:31:08.793Z,65.30
2019-02-27T23:33:42.899Z,65.40
2019-02-27T23:36:17.546Z,65.60
2019-02-27T23:38:51.194Z,65.10
2019-02-27T23:41:25.025Z,64.90
2019-02-27T23:43:58.548Z,64.90
2019-02-27T23:46:33.348Z,65.20
2019-02-27T23:49:07.434Z,65.50
2019-02-27T23:51:41.960Z,66.00
2019-02-27T23:54:15.486Z,66.10
2019-02-27T23:56:51.846Z,66.10
2019-02-27T23:59:24.702Z,66.50
